Felipe Montes

Olheiro-Chefe - Real Madrid
23 Abr 2028
Domingo
Processo

Personalidade

Adaptabilidade (15) Ambição (10) Controvérsia (3) Lealdade (10) Pressão (4) Profissionalismo (13) Espírito Esportivo (13) Temperamento (3)

Perfil

Estilo de Treinamento Democrático
Licença Nacional B
Determinação 11
Gestão de Pessoas 13
Motivação 15
Disciplina 7
Satisfação no Trabalho
100%
Fadiga
0%
Função Olheiro-Chefe
Salário 64.8K p/s
Contrato 14.03.2029

Desempenho

Comportamento Bom
Eficácia do Treinamento
63%
Desenvolvimento do Jogador
40%
Prevenção de Lesões
40%
Implementação Tática
75%

Eventos Recentes

Avaliou um jogador agora
Participou de uma reunião de recrutamento agora
Participou de uma reunião de recrutamento agora
Participou de uma reunião de recrutamento agora
Recomendou um alvo de transferência agora
Recomendou um alvo de transferência agora
Recomendou um alvo de transferência agora
Recomendou um alvo de transferência agora

Monitorando agora

65
Jogador Clube Status Habilidade Confiança Observado Última observação Último voto
Gabriel Arsenal Ativo 175 / 173 40% 42 20.04.2028 -
Vitinha Paris Saint-Germain Ativo 184 / 185 40% 7 20.04.2028 -
Dominik Szoboszlai Liverpool Ativo 172 / 171 40% 7 17.04.2028 -
Achraf Hakimi Paris Saint-Germain Ativo 181 / 176 40% 53 17.04.2028 -
Willian Pacho Paris Saint-Germain Ativo 171 / 172 40% 17 17.04.2028 -
William Saliba Arsenal Ativo 179 / 183 40% 3 16.04.2028 -
Enzo Fernández Manchester City Ativo 176 / 178 40% 47 14.04.2028 -
Alessandro Bastoni Inter Ativo 169 / 168 40% 2 14.04.2028 -
Manu Koné AS Roma Ativo 172 / 167 40% 25 14.04.2028 -
João Neves Paris Saint-Germain Ativo 170 / 167 40% 4 13.04.2028 -
Marc Guéhi Manchester City Ativo 173 / 172 40% 10 12.04.2028 -
Joško Gvardiol Manchester City Ativo 172 / 174 40% 19 11.04.2028 -
Rúben Dias Manchester City Rejeitado 174 / 175 67% 41 08.04.2028 Rejeitar
Omar El Hilali Espanyol Relatório pronto 154 / 148 86% 1 31.01.2028 -
Santiago Mouriño Villarreal Perdido 151 / 154 86% 1 17.01.2028 -
Giorgi Mamardashvili Liverpool Ativo 166 / 163 40% 1 10.01.2028 Mais informações
Lucas Chevalier AC Milan Negociando 165 / 170 40% 1 10.01.2028 -
Nico Williams Athletic Bilbao Ativo 169 / 168 86% 1 03.01.2028 Aprovar
Rasmus Højlund Espanyol Ativo 156 / 164 86% 1 02.01.2028 Aprovar
Nuno Mendes Real Madrid Negociando 168 / 169 90% 1 01.01.2028 -
Florian Wirtz Liverpool Ativo 169 / 171 69% 1 01.01.2028 Aprovar
Moisés Caicedo Chelsea Ativo 175 / 172 40% 22 24.12.2027 -
Nicolò Barella Inter Ativo 169 / 161 40% 2 05.07.2027 -
Matheus Nunes Manchester City Ativo 161 / 157 40% 1 05.07.2027 -
Fabián Manchester United Ativo 163 / 164 40% 11 15.06.2027 -
Jurriën Timber Arsenal Ativo 165 / 158 40% 1 30.05.2027 -
Martín Zubimendi Arsenal Ativo 167 / 167 40% 25 27.05.2027 -
Jeremie Frimpong Liverpool Ativo 161 / 158 40% 11 24.05.2027 -
Bremer Juventus Ativo 163 / 160 40% 12 20.05.2027 -
Boubacar Kamara Aston Villa Ativo 162 / 160 67% 24 15.05.2027 Aprovar
Lucas Varaldo Morelia Ativo 124 / 116 40% 4 02.01.2027 -
Matheus Cunha Manchester United Ativo 161 / 160 40% 2 02.01.2027 -
Ousmane Dembélé Paris Saint-Germain Ativo 182 / 179 40% 8 30.12.2026 -
Jérémy Doku Manchester City Ativo 163 / 170 40% 11 27.12.2026 -
Vinícius Júnior Paris Saint-Germain Ativo 179 / 173 40% 33 26.12.2026 -
Egoitz Arana Real Sociedad Ativo 104 / 107 96% 15 / 15m 26.12.2026 Observar
Iliman N'Diaye Everton Ativo 159 / 157 40% 12 26.12.2026 -
Rayan Cherki Manchester City Ativo 161 / 159 40% 13 24.12.2026 -
Dejan Kulusevski Tottenham Ativo 167 / 164 40% 10 23.12.2026 -
Federico Chiesa Liverpool Ativo 154 / 155 40% 2 22.12.2026 -
Hugo Ekitiké Liverpool Ativo 165 / 163 40% 7 21.12.2026 -
Kai Havertz Arsenal Ativo 165 / 158 40% 5 21.12.2026 -
Ryan Gravenberch Liverpool Ativo 163 / 159 40% 5 18.12.2026 -
Alexis Mac Allister Liverpool Ativo 157 / 162 40% 4 18.12.2026 -
Pau Víctor Braga Ativo 138 / 133 40% 1 08.12.2026 -
Alejandro Piedrahita Deportivo Pereira Ativo 121 / 119 40% 2 04.12.2026 -
Bradley Barcola Liverpool Ativo 167 / 162 40% 6 02.12.2026 -
Khvicha Kvaratskhelia Paris Saint-Germain Ativo 173 / 170 40% 6 01.12.2026 -
Antoine Semenyo Manchester City Ativo 159 / 160 40% 4 28.11.2026 -
Gabriel Martinelli Arsenal Ativo 159 / 166 40% 5 26.11.2026 -
Ramiro Ruiz Rodríguez Atlético Tucumán Ativo 113 / 120 40% 2 23.11.2026 -
Youri Tielemans Manchester United Ativo 160 / 162 40% 2 17.10.2026 -
Misael Sosa Godoy Cruz Ativo 112 / 125 40% 2 12.10.2026 -
Alexander Isak Liverpool Ativo 171 / 172 40% 8 10.10.2026 -
Favio Cabral Mitre Ativo 109 / 110 40% 1 03.10.2026 -
Brayan Moreno Santa Fe Ativo 112 / 108 40% 1 25.09.2026 -
Alexander Díaz Deportivo Riestra Ativo 122 / 118 40% 1 23.09.2026 -
Juan Cruz de los Santos Nacional Ativo 126 / 125 40% 2 19.09.2026 -
Luciano Cosentino Wanderers Ativo 131 / 119 40% 1 19.09.2026 -
Esteban Obregón Montevideo City Torque Ativo 114 / 117 40% 1 19.09.2026 -
Joel Orlando Almagro Ativo 118 / 126 40% 1 13.09.2026 -
Phil Foden Manchester City Ativo 172 / 168 40% 1 09.09.2026 -
Nico González Newcastle United Ativo 153 / 157 40% 1 07.09.2026 -
Lucas Bergvall Tottenham Ativo 140 / 145 40% 1 03.08.2026 -
Caleb Yirenkyi Coventry City Ativo 129 / 137 40% 1 03.08.2026 -